sensor_id;sensor_type;location;lat;lon;timestamp;temperature;humidity
27368;DHT22;14839;48.106;11.618;2023-02-11T05:02:13;-4.50;94.60
27368;DHT22;14839;48.106;11.618;2023-02-11T05:04:39;-4.50;94.60
27368;DHT22;14839;48.106;11.618;2023-02-11T05:07:04;-4.40;94.60
27368;DHT22;14839;48.106;11.618;2023-02-11T05:09:30;-4.40;94.60
27368;DHT22;14839;48.106;11.618;2023-02-11T05:11:56;-4.40;94.60
27368;DHT22;14839;48.106;11.618;2023-02-11T05:14:21;-4.40;94.60
27368;DHT22;14839;48.106;11.618;2023-02-11T05:16:47;-4.40;94.60
27368;DHT22;14839;48.106;11.618;2023-02-11T05:19:12;-4.40;94.60
27368;DHT22;14839;48.106;11.618;2023-02-11T05:21:38;-4.50;94.60
27368;DHT22;14839;48.106;11.618;2023-02-11T05:24:04;-4.30;94.60
27368;DHT22;14839;48.106;11.618;2023-02-11T05:26:31;-4.20;94.60
27368;DHT22;14839;48.106;11.618;2023-02-11T05:28:56;-4.10;94.60
27368;DHT22;14839;48.106;11.618;2023-02-11T05:31:22;-4.00;94.60
27368;DHT22;14839;48.106;11.618;2023-02-11T05:33:47;-3.90;94.60
27368;DHT22;14839;48.106;11.618;2023-02-11T05:36:13;-3.70;94.60
27368;DHT22;14839;48.106;11.618;2023-02-11T05:38:39;-3.60;94.60
27368;DHT22;14839;48.106;11.618;2023-02-11T05:41:05;-3.40;94.60
27368;DHT22;14839;48.106;11.618;2023-02-11T05:43:31;-3.30;94.60
27368;DHT22;14839;48.106;11.618;2023-02-11T05:45:56;-3.20;94.60
27368;DHT22;14839;48.106;11.618;2023-02-11T05:48:22;-3.10;94.60
27368;DHT22;14839;48.106;11.618;2023-02-11T05:50:48;-3.00;94.60
27368;DHT22;14839;48.106;11.618;2023-02-11T05:53:14;-2.90;94.60
27368;DHT22;14839;48.106;11.618;2023-02-11T05:55:39;-2.90;94.60
27368;DHT22;14839;48.106;11.618;2023-02-11T05:58:06;-2.90;94.60
27368;DHT22;14839;48.106;11.618;2023-02-11T06:00:32;-2.80;94.60
27368;DHT22;14839;48.106;11.618;2023-02-11T06:02:58;-2.70;94.60
27368;DHT22;14839;48.106;11.618;2023-02-11T06:05:23;-2.60;94.60
27368;DHT22;14839;48.106;11.618;2023-02-11T06:07:49;-2.50;94.60
27368;DHT22;14839;48.106;11.618;2023-02-11T06:10:15;-2.50;94.60
27368;DHT22;14839;48.106;11.618;2023-02-11T06:12:40;-2.40;94.60
27368;DHT22;14839;48.106;11.618;2023-02-11T06:15:06;-2.30;94.60
27368;DHT22;14839;48.106;11.618;2023-02-11T06:17:32;-2.20;94.60
27368;DHT22;14839;48.106;11.618;2023-02-11T06:19:59;-2.20;94.60
27368;DHT22;14839;48.106;11.618;2023-02-11T06:22:26;-2.20;94.60
27368;DHT22;14839;48.106;11.618;2023-02-11T06:24:51;-2.20;94.60
27368;DHT22;14839;48.106;11.618;2023-02-11T06:27:17;-2.10;94.60
27368;DHT22;14839;48.106;11.618;2023-02-11T06:29:44;-2.00;94.60
27368;DHT22;14839;48.106;11.618;2023-02-11T06:32:09;-2.00;94.60
27368;DHT22;14839;48.106;11.618;2023-02-11T06:34:35;-1.90;94.60
27368;DHT22;14839;48.106;11.618;2023-02-11T06:37:01;-1.90;94.60
27368;DHT22;14839;48.106;11.618;2023-02-11T06:39:27;-1.90;94.60
27368;DHT22;14839;48.106;11.618;2023-02-11T06:41:52;-1.90;94.60
27368;DHT22;14839;48.106;11.618;2023-02-11T06:44:18;-1.90;94.60
27368;DHT22;14839;48.106;11.618;2023-02-11T06:46:44;-2.00;94.60
27368;DHT22;14839;48.106;11.618;2023-02-11T06:49:09;-2.00;94.60
27368;DHT22;14839;48.106;11.618;2023-02-11T06:51:35;-2.00;94.60
27368;DHT22;14839;48.106;11.618;2023-02-11T06:54:01;-2.00;94.60
27368;DHT22;14839;48.106;11.618;2023-02-11T06:56:26;-1.90;94.60
27368;DHT22;14839;48.106;11.618;2023-02-11T06:58:53;-1.90;94.60
27368;DHT22;14839;48.106;11.618;2023-02-11T07:01:20;-1.80;94.60
27368;DHT22;14839;48.106;11.618;2023-02-11T07:03:46;-1.80;94.60
27368;DHT22;14839;48.106;11.618;2023-02-11T07:06:14;-1.70;94.60
27368;DHT22;14839;48.106;11.618;2023-02-11T07:08:40;-1.60;94.60
27368;DHT22;14839;48.106;11.618;2023-02-11T07:11:15;-1.50;94.60
27368;DHT22;14839;48.106;11.618;2023-02-11T07:13:41;-1.40;94.60
27368;DHT22;14839;48.106;11.618;2023-02-11T07:16:09;-1.20;94.60
27368;DHT22;14839;48.106;11.618;2023-02-11T07:18:35;-1.10;94.60
27368;DHT22;14839;48.106;11.618;2023-02-11T07:21:05;-1.10;94.60
27368;DHT22;14839;48.106;11.618;2023-02-11T07:23:32;-0.90;94.60
27368;DHT22;14839;48.106;11.618;2023-02-11T07:26:01;-0.90;94.60
27368;DHT22;14839;48.106;11.618;2023-02-11T07:28:26;-1.00;94.60
27368;DHT22;14839;48.106;11.618;2023-02-11T07:30:52;-0.80;94.60
27368;DHT22;14839;48.106;11.618;2023-02-11T07:33:17;-0.60;94.60
27368;DHT22;14839;48.106;11.618;2023-02-11T07:35:43;-0.60;94.00
27368;DHT22;14839;48.106;11.618;2023-02-11T07:38:08;-0.40;94.00
27368;DHT22;14839;48.106;11.618;2023-02-11T07:40:35;-0.30;93.50
27368;DHT22;14839;48.106;11.618;2023-02-11T07:43:00;-0.40;92.80
27368;DHT22;14839;48.106;11.618;2023-02-11T07:45:27;-0.40;93.20
27368;DHT22;14839;48.106;11.618;2023-02-11T07:47:53;-0.50;92.90
27368;DHT22;14839;48.106;11.618;2023-02-11T07:50:18;-0.30;93.40
27368;DHT22;14839;48.106;11.618;2023-02-11T07:52:44;0.00;92.60
27368;DHT22;14839;48.106;11.618;2023-02-11T07:55:09;0.20;92.00
27368;DHT22;14839;48.106;11.618;2023-02-11T07:57:35;0.30;91.30
27368;DHT22;14839;48.106;11.618;2023-02-11T08:00:02;0.50;90.80
27368;DHT22;14839;48.106;11.618;2023-02-11T08:02:28;0.50;90.10
27368;DHT22;14839;48.106;11.618;2023-02-11T08:04:53;0.60;89.60
27368;DHT22;14839;48.106;11.618;2023-02-11T08:07:19;0.70;89.50
27368;DHT22;14839;48.106;11.618;2023-02-11T08:09:44;0.90;89.00
27368;DHT22;14839;48.106;11.618;2023-02-11T08:12:10;1.00;88.90
27368;DHT22;14839;48.106;11.618;2023-02-11T08:14:36;0.90;88.70
27368;DHT22;14839;48.106;11.618;2023-02-11T08:17:02;0.90;89.60
27368;DHT22;14839;48.106;11.618;2023-02-11T08:19:27;0.90;89.50
27368;DHT22;14839;48.106;11.618;2023-02-11T08:21:56;1.00;89.20
27368;DHT22;14839;48.106;11.618;2023-02-11T08:24:23;1.10;89.60
27368;DHT22;14839;48.106;11.618;2023-02-11T08:26:49;1.40;88.40
27368;DHT22;14839;48.106;11.618;2023-02-11T08:29:15;1.60;87.10
27368;DHT22;14839;48.106;11.618;2023-02-11T08:31:44;1.80;86.60
27368;DHT22;14839;48.106;11.618;2023-02-11T08:34:11;2.10;84.20
27368;DHT22;14839;48.106;11.618;2023-02-11T08:36:40;2.30;83.50
27368;DHT22;14839;48.106;11.618;2023-02-11T08:39:16;2.50;83.30
27368;DHT22;14839;48.106;11.618;2023-02-11T08:41:42;2.80;83.00
27368;DHT22;14839;48.106;11.618;2023-02-11T08:44:08;3.00;81.10
27368;DHT22;14839;48.106;11.618;2023-02-11T08:46:33;3.10;80.00
27368;DHT22;14839;48.106;11.618;2023-02-11T08:48:59;3.10;79.70
27368;DHT22;14839;48.106;11.618;2023-02-11T08:51:27;3.20;80.20
27368;DHT22;14839;48.106;11.618;2023-02-11T08:53:54;3.30;80.20
27368;DHT22;14839;48.106;11.618;2023-02-11T08:56:20;3.30;79.00
27368;DHT22;14839;48.106;11.618;2023-02-11T08:58:47;3.50;78.50
27368;DHT22;14839;48.106;11.618;2023-02-11T09:01:25;3.40;79.40
27368;DHT22;14839;48.106;11.618;2023-02-11T09:03:52;3.50;78.40
27368;DHT22;14839;48.106;11.618;2023-02-11T09:06:18;3.50;77.80
27368;DHT22;14839;48.106;11.618;2023-02-11T09:08:46;3.40;77.00
27368;DHT22;14839;48.106;11.618;2023-02-11T09:11:14;3.30;77.90
27368;DHT22;14839;48.106;11.618;2023-02-11T09:13:41;3.40;77.60
27368;DHT22;14839;48.106;11.618;2023-02-11T09:16:12;3.50;78.40
27368;DHT22;14839;48.106;11.618;2023-02-11T09:18:39;3.50;78.50
27368;DHT22;14839;48.106;11.618;2023-02-11T09:21:07;3.60;78.40
27368;DHT22;14839;48.106;11.618;2023-02-11T09:23:33;3.80;78.50
27368;DHT22;14839;48.106;11.618;2023-02-11T09:26:05;3.90;76.60
27368;DHT22;14839;48.106;11.618;2023-02-11T09:28:30;3.80;76.30
27368;DHT22;14839;48.106;11.618;2023-02-11T09:30:56;3.70;76.40
27368;DHT22;14839;48.106;11.618;2023-02-11T09:33:21;3.70;77.00
27368;DHT22;14839;48.106;11.618;2023-02-11T09:35:47;3.60;75.80
27368;DHT22;14839;48.106;11.618;2023-02-11T09:38:12;3.80;75.80
27368;DHT22;14839;48.106;11.618;2023-02-11T09:40:43;3.90;75.20
27368;DHT22;14839;48.106;11.618;2023-02-11T09:43:21;3.90;75.20
27368;DHT22;14839;48.106;11.618;2023-02-11T09:45:49;3.90;74.30
27368;DHT22;14839;48.106;11.618;2023-02-11T09:48:18;3.70;75.20
27368;DHT22;14839;48.106;11.618;2023-02-11T09:50:54;3.90;74.90
27368;DHT22;14839;48.106;11.618;2023-02-11T09:53:27;3.90;74.80
27368;DHT22;14839;48.106;11.618;2023-02-11T09:55:58;4.10;74.30
27368;DHT22;14839;48.106;11.618;2023-02-11T09:58:25;4.20;74.20
27368;DHT22;14839;48.106;11.618;2023-02-11T10:06:34;4.30;71.90
27368;DHT22;14839;48.106;11.618;2023-02-11T10:11:52;4.80;71.50
27368;DHT22;14839;48.106;11.618;2023-02-11T10:14:52;5.40;71.20
27368;DHT22;14839;48.106;11.618;2023-02-11T10:20:07;6.60;66.20
27368;DHT22;14839;48.106;11.618;2023-02-11T10:22:57;7.10;64.70
27368;DHT22;14839;48.106;11.618;2023-02-11T10:25:27;7.20;62.90
27368;DHT22;14839;48.106;11.618;2023-02-11T10:27:56;7.10;62.80
27368;DHT22;14839;48.106;11.618;2023-02-11T10:30:32;7.10;62.90
27368;DHT22;14839;48.106;11.618;2023-02-11T10:33:14;6.90;62.90
27368;DHT22;14839;48.106;11.618;2023-02-11T10:35:42;6.60;63.70
27368;DHT22;14839;48.106;11.618;2023-02-11T10:38:09;6.50;64.60
27368;DHT22;14839;48.106;11.618;2023-02-11T10:40:35;6.20;65.20
27368;DHT22;14839;48.106;11.618;2023-02-11T10:43:03;6.00;65.90
27368;DHT22;14839;48.106;11.618;2023-02-11T10:45:50;5.80;66.20
27368;DHT22;14839;48.106;11.618;2023-02-11T10:53:32;6.70;65.30
27368;DHT22;14839;48.106;11.618;2023-02-11T10:55:59;7.20;64.60
27368;DHT22;14839;48.106;11.618;2023-02-11T10:58:43;7.40;64.40
27368;DHT22;14839;48.106;11.618;2023-02-11T11:01:09;7.70;64.40
27368;DHT22;14839;48.106;11.618;2023-02-11T11:03:38;8.20;63.70
27368;DHT22;14839;48.106;11.618;2023-02-11T11:06:08;8.70;60.00
27368;DHT22;14839;48.106;11.618;2023-02-11T11:08:49;9.00;60.00
27368;DHT22;14839;48.106;11.618;2023-02-11T11:11:17;9.60;59.50
27368;DHT22;14839;48.106;11.618;2023-02-11T11:16:24;8.80;58.40
27368;DHT22;14839;48.106;11.618;2023-02-11T11:18:53;8.50;59.40
27368;DHT22;14839;48.106;11.618;2023-02-11T11:21:47;8.30;60.00
27368;DHT22;14839;48.106;11.618;2023-02-11T11:26:53;8.30;59.80
27368;DHT22;14839;48.106;11.618;2023-02-11T11:29:33;8.40;59.50
27368;DHT22;14839;48.106;11.618;2023-02-11T11:34:51;8.60;58.20
27368;DHT22;14839;48.106;11.618;2023-02-11T11:37:28;8.40;58.80
27368;DHT22;14839;48.106;11.618;2023-02-11T11:40:07;8.00;60.00
27368;DHT22;14839;48.106;11.618;2023-02-11T11:42:36;7.80;59.50
27368;DHT22;14839;48.106;11.618;2023-02-11T11:45:23;7.70;60.10
27368;DHT22;14839;48.106;11.618;2023-02-11T11:48:25;7.80;59.80
27368;DHT22;14839;48.106;11.618;2023-02-11T11:50:56;8.10;58.70
27368;DHT22;14839;48.106;11.618;2023-02-11T11:53:44;8.20;58.90
27368;DHT22;14839;48.106;11.618;2023-02-11T11:56:11;8.40;57.60
27368;DHT22;14839;48.106;11.618;2023-02-11T11:58:38;8.60;57.60
27368;DHT22;14839;48.106;11.618;2023-02-11T12:09:34;9.00;53.90
27368;DHT22;14839;48.106;11.618;2023-02-11T12:12:26;8.80;54.80
27368;DHT22;14839;48.106;11.618;2023-02-11T12:23:13;8.60;54.40
27368;DHT22;14839;48.106;11.618;2023-02-11T12:25:55;8.30;55.40
27368;DHT22;14839;48.106;11.618;2023-02-11T12:28:44;8.30;55.70
27368;DHT22;14839;48.106;11.618;2023-02-11T12:31:26;8.30;55.70
27368;DHT22;14839;48.106;11.618;2023-02-11T12:36:49;8.20;55.50
27368;DHT22;14839;48.106;11.618;2023-02-11T12:44:53;8.30;54.70
27368;DHT22;14839;48.106;11.618;2023-02-11T12:50:18;8.40;54.70
27368;DHT22;14839;48.106;11.618;2023-02-11T12:56:13;8.20;53.90
27368;DHT22;14839;48.106;11.618;2023-02-11T12:58:41;8.10;55.30
27368;DHT22;14839;48.106;11.618;2023-02-11T13:01:16;8.20;54.20
27368;DHT22;14839;48.106;11.618;2023-02-11T13:03:56;8.10;53.30
27368;DHT22;14839;48.106;11.618;2023-02-11T13:06:28;8.00;54.10
27368;DHT22;14839;48.106;11.618;2023-02-11T13:09:00;8.10;54.70
27368;DHT22;14839;48.106;11.618;2023-02-11T13:11:29;8.10;52.60
27368;DHT22;14839;48.106;11.618;2023-02-11T13:14:05;8.20;52.60
27368;DHT22;14839;48.106;11.618;2023-02-11T13:16:44;8.00;53.00
27368;DHT22;14839;48.106;11.618;2023-02-11T13:19:28;8.00;53.80
27368;DHT22;14839;48.106;11.618;2023-02-11T13:22:16;7.90;54.40
27368;DHT22;14839;48.106;11.618;2023-02-11T13:24:55;7.80;54.20
27368;DHT22;14839;48.106;11.618;2023-02-11T13:27:30;7.50;54.80
27368;DHT22;14839;48.106;11.618;2023-02-11T13:35:28;7.50;56.40
27368;DHT22;14839;48.106;11.618;2023-02-11T13:37:55;7.70;56.00
27368;DHT22;14839;48.106;11.618;2023-02-11T13:42:55;7.90;56.00
27368;DHT22;14839;48.106;11.618;2023-02-11T13:45:29;8.30;54.50
27368;DHT22;14839;48.106;11.618;2023-02-11T13:48:00;8.50;54.80
27368;DHT22;14839;48.106;11.618;2023-02-11T13:50:27;8.50;53.90
27368;DHT22;14839;48.106;11.618;2023-02-11T13:53:01;8.50;53.80
27368;DHT22;14839;48.106;11.618;2023-02-11T13:55:28;8.40;54.20
27368;DHT22;14839;48.106;11.618;2023-02-11T14:03:28;8.50;53.50
27368;DHT22;14839;48.106;11.618;2023-02-11T14:06:18;8.50;53.20
27368;DHT22;14839;48.106;11.618;2023-02-11T14:09:33;8.50;53.20
27368;DHT22;14839;48.106;11.618;2023-02-11T14:12:21;8.40;54.10
27368;DHT22;14839;48.106;11.618;2023-02-11T14:17:31;8.40;54.40
27368;DHT22;14839;48.106;11.618;2023-02-11T14:19:58;8.40;54.40
27368;DHT22;14839;48.106;11.618;2023-02-11T14:22:51;8.60;54.40
27368;DHT22;14839;48.106;11.618;2023-02-11T14:25:22;8.70;54.80
27368;DHT22;14839;48.106;11.618;2023-02-11T14:28:00;8.70;54.50
27368;DHT22;14839;48.106;11.618;2023-02-11T14:30:37;8.60;53.80
27368;DHT22;14839;48.106;11.618;2023-02-11T14:33:32;8.70;53.90
27368;DHT22;14839;48.106;11.618;2023-02-11T14:38:57;8.50;56.10
27368;DHT22;14839;48.106;11.618;2023-02-11T14:41:29;8.30;55.80
27368;DHT22;14839;48.106;11.618;2023-02-11T14:44:03;8.30;56.10
27368;DHT22;14839;48.106;11.618;2023-02-11T14:46:29;8.30;56.70
27368;DHT22;14839;48.106;11.618;2023-02-11T14:48:59;8.10;57.30
27368;DHT22;14839;48.106;11.618;2023-02-11T14:51:37;8.10;56.90
27368;DHT22;14839;48.106;11.618;2023-02-11T14:54:17;8.10;56.60
27368;DHT22;14839;48.106;11.618;2023-02-11T14:56:44;8.00;56.90
27368;DHT22;14839;48.106;11.618;2023-02-11T14:59:19;8.00;57.30
27368;DHT22;14839;48.106;11.618;2023-02-11T15:01:48;8.10;57.80
27368;DHT22;14839;48.106;11.618;2023-02-11T15:04:27;8.10;58.90
27368;DHT22;14839;48.106;11.618;2023-02-11T15:06:55;8.10;57.90
27368;DHT22;14839;48.106;11.618;2023-02-11T15:11:59;8.10;57.80
27368;DHT22;14839;48.106;11.618;2023-02-11T15:14:27;8.00;58.10
27368;DHT22;14839;48.106;11.618;2023-02-11T15:16:57;7.90;58.70
27368;DHT22;14839;48.106;11.618;2023-02-11T15:19:25;7.80;59.20
27368;DHT22;14839;48.106;11.618;2023-02-11T15:21:52;7.70;60.40
27368;DHT22;14839;48.106;11.618;2023-02-11T15:24:24;7.60;60.80
27368;DHT22;14839;48.106;11.618;2023-02-11T15:29:48;7.40;62.00
27368;DHT22;14839;48.106;11.618;2023-02-11T15:34:42;7.20;63.70
27368;DHT22;14839;48.106;11.618;2023-02-11T15:37:34;7.20;63.70
27368;DHT22;14839;48.106;11.618;2023-02-11T15:40:17;7.20;64.10
27368;DHT22;14839;48.106;11.618;2023-02-11T15:42:57;7.10;65.90
27368;DHT22;14839;48.106;11.618;2023-02-11T15:45:52;7.00;66.20
27368;DHT22;14839;48.106;11.618;2023-02-11T15:48:22;6.90;66.70
27368;DHT22;14839;48.106;11.618;2023-02-11T15:50:54;6.80;67.00
27368;DHT22;14839;48.106;11.618;2023-02-11T15:56:07;6.60;68.20
27368;DHT22;14839;48.106;11.618;2023-02-11T15:58:37;6.50;68.90
27368;DHT22;14839;48.106;11.618;2023-02-11T16:01:05;6.40;69.70
27368;DHT22;14839;48.106;11.618;2023-02-11T16:03:31;6.30;70.00
27368;DHT22;14839;48.106;11.618;2023-02-11T16:06:22;6.30;70.40
27368;DHT22;14839;48.106;11.618;2023-02-11T16:11:52;6.10;71.00
27368;DHT22;14839;48.106;11.618;2023-02-11T16:17:11;5.90;72.40
27368;DHT22;14839;48.106;11.618;2023-02-11T16:19:46;5.90;72.50
27368;DHT22;14839;48.106;11.618;2023-02-11T16:22:26;5.90;73.00
27368;DHT22;14839;48.106;11.618;2023-02-11T16:24:56;5.80;73.70
27368;DHT22;14839;48.106;11.618;2023-02-11T16:27:27;5.70;73.90
27368;DHT22;14839;48.106;11.618;2023-02-11T16:29:55;5.60;74.50
27368;DHT22;14839;48.106;11.618;2023-02-11T16:32:26;5.60;74.80
27368;DHT22;14839;48.106;11.618;2023-02-11T16:34:54;5.50;75.20
27368;DHT22;14839;48.106;11.618;2023-02-11T16:37:22;5.50;75.40
27368;DHT22;14839;48.106;11.618;2023-02-11T16:39:48;5.40;76.10
27368;DHT22;14839;48.106;11.618;2023-02-11T16:42:14;5.30;76.30
27368;DHT22;14839;48.106;11.618;2023-02-11T16:44:39;5.30;76.60
27368;DHT22;14839;48.106;11.618;2023-02-11T16:47:21;5.20;77.30
27368;DHT22;14839;48.106;11.618;2023-02-11T16:49:47;5.20;77.60
27368;DHT22;14839;48.106;11.618;2023-02-11T16:52:15;5.10;77.90
27368;DHT22;14839;48.106;11.618;2023-02-11T16:54:41;5.00;77.90
27368;DHT22;14839;48.106;11.618;2023-02-11T16:57:15;5.00;78.40
27368;DHT22;14839;48.106;11.618;2023-02-11T16:59:41;4.90;79.30
27368;DHT22;14839;48.106;11.618;2023-02-11T17:02:15;4.90;79.90
27368;DHT22;14839;48.106;11.618;2023-02-11T17:04:43;4.80;80.20
27368;DHT22;14839;48.106;11.618;2023-02-11T17:07:08;4.70;80.60
27368;DHT22;14839;48.106;11.618;2023-02-11T17:09:34;4.70;80.80
27368;DHT22;14839;48.106;11.618;2023-02-11T17:12:00;4.60;81.20
27368;DHT22;14839;48.106;11.618;2023-02-11T17:14:25;4.40;82.30
27368;DHT22;14839;48.106;11.618;2023-02-11T17:16:51;4.40;82.70
27368;DHT22;14839;48.106;11.618;2023-02-11T17:19:18;4.30;83.20
27368;DHT22;14839;48.106;11.618;2023-02-11T17:21:46;4.20;83.60
27368;DHT22;14839;48.106;11.618;2023-02-11T17:24:12;4.20;83.90
27368;DHT22;14839;48.106;11.618;2023-02-11T17:26:42;4.10;84.20
27368;DHT22;14839;48.106;11.618;2023-02-11T17:29:11;4.00;84.70
27368;DHT22;14839;48.106;11.618;2023-02-11T17:31:38;3.90;85.00
27368;DHT22;14839;48.106;11.618;2023-02-11T17:34:04;4.00;85.10
27368;DHT22;14839;48.106;11.618;2023-02-11T17:36:29;4.00;85.10
27368;DHT22;14839;48.106;11.618;2023-02-11T17:38:57;4.10;85.30
27368;DHT22;14839;48.106;11.618;2023-02-11T17:41:23;4.00;85.90
27368;DHT22;14839;48.106;11.618;2023-02-11T17:43:49;4.00;85.90
27368;DHT22;14839;48.106;11.618;2023-02-11T17:46:14;4.00;86.00
27368;DHT22;14839;48.106;11.618;2023-02-11T17:48:40;4.00;86.30
27368;DHT22;14839;48.106;11.618;2023-02-11T17:53:47;4.00;86.60
27368;DHT22;14839;48.106;11.618;2023-02-11T17:56:13;4.00;86.60
27368;DHT22;14839;48.106;11.618;2023-02-11T17:58:39;4.00;86.80
27368;DHT22;14839;48.106;11.618;2023-02-11T18:01:05;4.00;86.80
27368;DHT22;14839;48.106;11.618;2023-02-11T18:03:30;4.00;87.10
27368;DHT22;14839;48.106;11.618;2023-02-11T18:06:01;4.00;87.20
27368;DHT22;14839;48.106;11.618;2023-02-11T18:08:27;4.00;87.20
27368;DHT22;14839;48.106;11.618;2023-02-11T18:10:53;4.00;87.70
27368;DHT22;14839;48.106;11.618;2023-02-11T18:13:19;4.00;88.10
27368;DHT22;14839;48.106;11.618;2023-02-11T18:15:45;3.90;88.10
27368;DHT22;14839;48.106;11.618;2023-02-11T18:18:10;3.90;88.30
27368;DHT22;14839;48.106;11.618;2023-02-11T18:20:36;3.90;88.60
27368;DHT22;14839;48.106;11.618;2023-02-11T18:23:01;3.90;88.90
27368;DHT22;14839;48.106;11.618;2023-02-11T18:25:27;3.90;88.90
27368;DHT22;14839;48.106;11.618;2023-02-11T18:27:54;3.90;89.00
27368;DHT22;14839;48.106;11.618;2023-02-11T18:30:21;3.80;89.30
27368;DHT22;14839;48.106;11.618;2023-02-11T18:32:47;3.70;89.30
27368;DHT22;14839;48.106;11.618;2023-02-11T18:35:13;3.70;89.80
27368;DHT22;14839;48.106;11.618;2023-02-11T18:37:40;3.60;90.10
27368;DHT22;14839;48.106;11.618;2023-02-11T18:40:06;3.50;90.20
27368;DHT22;14839;48.106;11.618;2023-02-11T18:42:32;3.40;90.50
27368;DHT22;14839;48.106;11.618;2023-02-11T18:44:59;3.40;90.80
27368;DHT22;14839;48.106;11.618;2023-02-11T18:47:24;3.30;91.00
27368;DHT22;14839;48.106;11.618;2023-02-11T18:49:50;3.20;91.30
27368;DHT22;14839;48.106;11.618;2023-02-11T18:52:16;3.20;91.50
27368;DHT22;14839;48.106;11.618;2023-02-11T18:54:42;3.10;91.60
27368;DHT22;14839;48.106;11.618;2023-02-11T18:57:07;3.00;91.50
27368;DHT22;14839;48.106;11.618;2023-02-11T18:59:33;3.00;91.70
27368;DHT22;14839;48.106;11.618;2023-02-11T19:01:59;2.90;92.00
27368;DHT22;14839;48.106;11.618;2023-02-11T19:04:24;2.80;92.30
27368;DHT22;14839;48.106;11.618;2023-02-11T19:06:50;2.70;92.50
27368;DHT22;14839;48.106;11.618;2023-02-11T19:09:18;2.60;93.00
27368;DHT22;14839;48.106;11.618;2023-02-11T19:11:44;2.50;93.30
27368;DHT22;14839;48.106;11.618;2023-02-11T19:14:25;2.50;93.60
27368;DHT22;14839;48.106;11.618;2023-02-11T19:16:55;2.40;93.90
27368;DHT22;14839;48.106;11.618;2023-02-11T19:19:22;2.40;94.00
27368;DHT22;14839;48.106;11.618;2023-02-11T19:21:48;2.40;94.20
27368;DHT22;14839;48.106;11.618;2023-02-11T19:24:16;2.40;94.20
27368;DHT22;14839;48.106;11.618;2023-02-11T19:26:44;2.40;94.30
27368;DHT22;14839;48.106;11.618;2023-02-11T19:29:10;2.40;94.30
27368;DHT22;14839;48.106;11.618;2023-02-11T19:31:36;2.50;94.40
27368;DHT22;14839;48.106;11.618;2023-02-11T19:34:03;2.50;94.50
27368;DHT22;14839;48.106;11.618;2023-02-11T19:36:29;2.50;94.30
27368;DHT22;14839;48.106;11.618;2023-02-11T19:38:55;2.50;94.40
27368;DHT22;14839;48.106;11.618;2023-02-11T19:41:22;2.50;94.50
27368;DHT22;14839;48.106;11.618;2023-02-11T19:43:49;2.50;94.60
27368;DHT22;14839;48.106;11.618;2023-02-11T19:46:21;2.50;94.60
27368;DHT22;14839;48.106;11.618;2023-02-11T19:48:47;2.50;94.60
27368;DHT22;14839;48.106;11.618;2023-02-11T19:51:13;2.40;94.50
27368;DHT22;14839;48.106;11.618;2023-02-11T19:53:39;2.40;94.50
27368;DHT22;14839;48.106;11.618;2023-02-11T19:56:05;2.40;94.30
27368;DHT22;14839;48.106;11.618;2023-02-11T19:58:32;2.50;94.20
27368;DHT22;14839;48.106;11.618;2023-02-11T20:01:16;2.50;94.20
27368;DHT22;14839;48.106;11.618;2023-02-11T20:03:42;2.50;94.50
27368;DHT22;14839;48.106;11.618;2023-02-11T20:06:12;2.50;94.30
27368;DHT22;14839;48.106;11.618;2023-02-11T20:08:38;2.40;94.30
27368;DHT22;14839;48.106;11.618;2023-02-11T20:11:15;2.40;94.50
27368;DHT22;14839;48.106;11.618;2023-02-11T20:13:41;2.30;94.50
27368;DHT22;14839;48.106;11.618;2023-02-11T20:16:10;2.30;94.60
27368;DHT22;14839;48.106;11.618;2023-02-11T20:18:37;2.30;94.60
27368;DHT22;14839;48.106;11.618;2023-02-11T20:21:26;2.30;94.60
27368;DHT22;14839;48.106;11.618;2023-02-11T20:23:53;2.40;94.60
27368;DHT22;14839;48.106;11.618;2023-02-11T20:26:22;2.50;94.60
27368;DHT22;14839;48.106;11.618;2023-02-11T20:28:48;2.60;94.30
27368;DHT22;14839;48.106;11.618;2023-02-11T20:31:15;2.60;94.10
27368;DHT22;14839;48.106;11.618;2023-02-11T20:33:41;2.60;94.10
27368;DHT22;14839;48.106;11.618;2023-02-11T20:36:09;2.60;94.10
27368;DHT22;14839;48.106;11.618;2023-02-11T20:38:36;2.60;94.20
27368;DHT22;14839;48.106;11.618;2023-02-11T20:41:06;2.60;94.30
27368;DHT22;14839;48.106;11.618;2023-02-11T20:43:34;2.60;94.60
27368;DHT22;14839;48.106;11.618;2023-02-11T20:46:04;2.70;94.60
27368;DHT22;14839;48.106;11.618;2023-02-11T20:48:30;2.70;94.30
27368;DHT22;14839;48.106;11.618;2023-02-11T20:51:08;2.90;93.90
27368;DHT22;14839;48.106;11.618;2023-02-11T20:53:38;3.00;93.50
27368;DHT22;14839;48.106;11.618;2023-02-11T20:56:06;3.00;93.30
27368;DHT22;14839;48.106;11.618;2023-02-11T20:58:33;3.00;93.10
27368;DHT22;14839;48.106;11.618;2023-02-11T21:01:20;2.90;93.10
27368;DHT22;14839;48.106;11.618;2023-02-11T21:03:52;2.90;93.30
27368;DHT22;14839;48.106;11.618;2023-02-11T21:06:19;2.90;93.30
27368;DHT22;14839;48.106;11.618;2023-02-11T21:08:45;2.90;93.20
27368;DHT22;14839;48.106;11.618;2023-02-11T21:11:11;2.90;93.20
27368;DHT22;14839;48.106;11.618;2023-02-11T21:13:39;2.90;93.50
27368;DHT22;14839;48.106;11.618;2023-02-11T21:16:06;2.90;93.70
27368;DHT22;14839;48.106;11.618;2023-02-11T21:18:32;2.90;93.40
27368;DHT22;14839;48.106;11.618;2023-02-11T21:20:58;2.90;93.30
27368;DHT22;14839;48.106;11.618;2023-02-11T21:23:24;2.90;93.40
27368;DHT22;14839;48.106;11.618;2023-02-11T21:25:52;2.90;93.30
27368;DHT22;14839;48.106;11.618;2023-02-11T21:28:18;2.90;93.40
27368;DHT22;14839;48.106;11.618;2023-02-11T21:30:43;2.90;93.50
27368;DHT22;14839;48.106;11.618;2023-02-11T21:33:09;2.90;93.60
27368;DHT22;14839;48.106;11.618;2023-02-11T21:35:35;2.90;93.60
27368;DHT22;14839;48.106;11.618;2023-02-11T21:38:02;2.90;93.60
27368;DHT22;14839;48.106;11.618;2023-02-11T21:40:28;2.90;93.40
27368;DHT22;14839;48.106;11.618;2023-02-11T21:42:55;3.00;93.30
27368;DHT22;14839;48.106;11.618;2023-02-11T21:45:22;3.00;93.10
27368;DHT22;14839;48.106;11.618;2023-02-11T21:47:47;3.00;93.00
27368;DHT22;14839;48.106;11.618;2023-02-11T21:50:13;3.00;93.00
27368;DHT22;14839;48.106;11.618;2023-02-11T21:52:39;3.00;93.40
27368;DHT22;14839;48.106;11.618;2023-02-11T21:55:05;3.00;93.50
27368;DHT22;14839;48.106;11.618;2023-02-11T21:57:30;3.10;93.10
27368;DHT22;14839;48.106;11.618;2023-02-11T21:59:56;3.10;92.80
27368;DHT22;14839;48.106;11.618;2023-02-11T22:02:21;3.20;92.60
27368;DHT22;14839;48.106;11.618;2023-02-11T22:04:47;3.20;92.60
27368;DHT22;14839;48.106;11.618;2023-02-11T22:07:13;3.20;92.50
27368;DHT22;14839;48.106;11.618;2023-02-11T22:09:39;3.20;92.70
27368;DHT22;14839;48.106;11.618;2023-02-11T22:12:05;3.20;92.90
27368;DHT22;14839;48.106;11.618;2023-02-11T22:14:34;3.20;92.90
27368;DHT22;14839;48.106;11.618;2023-02-11T22:16:59;3.20;92.90